sensor_id;sensor_type;location;lat;lon;timestamp;P1;durP1;ratioP1;P2;durP2;ratioP2
35380;SDS011;21486;51.916;8.378;2023-12-14T00:39:05;9.90;;;5.20;;
35380;SDS011;21486;51.916;8.378;2023-12-14T00:41:31;9.90;;;5.07;;
35380;SDS011;21486;51.916;8.378;2023-12-14T00:43:56;9.45;;;5.38;;
35380;SDS011;21486;51.916;8.378;2023-12-14T00:46:22;6.80;;;4.35;;
35380;SDS011;21486;51.916;8.378;2023-12-14T00:48:47;10.50;;;5.43;;
35380;SDS011;21486;51.916;8.378;2023-12-14T00:51:13;13.63;;;5.25;;
35380;SDS011;21486;51.916;8.378;2023-12-14T00:53:38;8.15;;;4.78;;
35380;SDS011;21486;51.916;8.378;2023-12-14T00:56:04;10.63;;;5.10;;
35380;SDS011;21486;51.916;8.378;2023-12-14T00:58:32;10.48;;;5.07;;
35380;SDS011;21486;51.916;8.378;2023-12-14T01:00:57;8.82;;;5.20;;
35380;SDS011;21486;51.916;8.378;2023-12-14T01:03:23;11.95;;;5.18;;
35380;SDS011;21486;51.916;8.378;2023-12-14T01:05:48;9.02;;;5.18;;
35380;SDS011;21486;51.916;8.378;2023-12-14T01:08:14;7.70;;;4.65;;
35380;SDS011;21486;51.916;8.378;2023-12-14T01:10:40;8.60;;;4.60;;
35380;SDS011;21486;51.916;8.378;2023-12-14T01:13:05;8.73;;;4.45;;
35380;SDS011;21486;51.916;8.378;2023-12-14T01:15:31;10.57;;;4.88;;
35380;SDS011;21486;51.916;8.378;2023-12-14T01:17:56;6.82;;;4.05;;
35380;SDS011;21486;51.916;8.378;2023-12-14T01:20:21;6.53;;;4.03;;
35380;SDS011;21486;51.916;8.378;2023-12-14T01:22:47;11.40;;;4.38;;
35380;SDS011;21486;51.916;8.378;2023-12-14T01:25:13;8.45;;;4.63;;
35380;SDS011;21486;51.916;8.378;2023-12-14T01:27:38;8.32;;;4.53;;
35380;SDS011;21486;51.916;8.378;2023-12-14T01:33:01;9.25;;;4.82;;
35380;SDS011;21486;51.916;8.378;2023-12-14T01:35:27;9.70;;;5.20;;
35380;SDS011;21486;51.916;8.378;2023-12-14T01:37:54;8.55;;;4.50;;
35380;SDS011;21486;51.916;8.378;2023-12-14T01:40:20;8.70;;;4.88;;
35380;SDS011;21486;51.916;8.378;2023-12-14T01:42:45;11.05;;;5.07;;
35380;SDS011;21486;51.916;8.378;2023-12-14T01:45:11;12.88;;;5.40;;
35380;SDS011;21486;51.916;8.378;2023-12-14T01:47:40;7.57;;;4.63;;
35380;SDS011;21486;51.916;8.378;2023-12-14T01:50:05;9.10;;;4.68;;
35380;SDS011;21486;51.916;8.378;2023-12-14T01:52:31;8.65;;;4.80;;
35380;SDS011;21486;51.916;8.378;2023-12-14T01:54:57;9.02;;;4.70;;
35380;SDS011;21486;51.916;8.378;2023-12-14T01:57:24;9.35;;;4.55;;
35380;SDS011;21486;51.916;8.378;2023-12-14T01:59:49;12.27;;;4.60;;
35380;SDS011;21486;51.916;8.378;2023-12-14T02:02:15;9.68;;;4.90;;
35380;SDS011;21486;51.916;8.378;2023-12-14T02:04:40;8.52;;;4.60;;
35380;SDS011;21486;51.916;8.378;2023-12-14T02:07:06;8.98;;;5.22;;
35380;SDS011;21486;51.916;8.378;2023-12-14T02:11:57;11.45;;;4.68;;
35380;SDS011;21486;51.916;8.378;2023-12-14T02:14:22;8.27;;;4.18;;
35380;SDS011;21486;51.916;8.378;2023-12-14T02:16:48;8.43;;;5.20;;
35380;SDS011;21486;51.916;8.378;2023-12-14T02:19:14;9.48;;;4.38;;
35380;SDS011;21486;51.916;8.378;2023-12-14T02:21:39;9.73;;;4.93;;
35380;SDS011;21486;51.916;8.378;2023-12-14T02:24:05;10.48;;;4.85;;
35380;SDS011;21486;51.916;8.378;2023-12-14T02:26:31;12.10;;;5.53;;
35380;SDS011;21486;51.916;8.378;2023-12-14T02:28:56;12.20;;;5.15;;
35380;SDS011;21486;51.916;8.378;2023-12-14T02:31:22;12.05;;;5.72;;
35380;SDS011;21486;51.916;8.378;2023-12-14T02:33:48;9.32;;;5.15;;
35380;SDS011;21486;51.916;8.378;2023-12-14T02:36:13;11.38;;;5.53;;
35380;SDS011;21486;51.916;8.378;2023-12-14T02:38:39;8.60;;;4.63;;
35380;SDS011;21486;51.916;8.378;2023-12-14T02:41:04;7.65;;;4.85;;
35380;SDS011;21486;51.916;8.378;2023-12-14T02:43:30;8.30;;;3.63;;
35380;SDS011;21486;51.916;8.378;2023-12-14T02:45:55;5.20;;;3.15;;
35380;SDS011;21486;51.916;8.378;2023-12-14T02:48:26;6.90;;;3.35;;
35380;SDS011;21486;51.916;8.378;2023-12-14T02:50:52;4.57;;;3.13;;
35380;SDS011;21486;51.916;8.378;2023-12-14T02:53:18;5.07;;;3.30;;
35380;SDS011;21486;51.916;8.378;2023-12-14T02:55:43;5.85;;;3.20;;
35380;SDS011;21486;51.916;8.378;2023-12-14T02:58:08;5.57;;;3.13;;
35380;SDS011;21486;51.916;8.378;2023-12-14T03:00:34;4.57;;;3.20;;
35380;SDS011;21486;51.916;8.378;2023-12-14T03:02:59;6.10;;;3.35;;
35380;SDS011;21486;51.916;8.378;2023-12-14T03:05:25;6.07;;;3.40;;
35380;SDS011;21486;51.916;8.378;2023-12-14T03:07:50;5.65;;;3.05;;
35380;SDS011;21486;51.916;8.378;2023-12-14T03:10:16;7.13;;;3.75;;
35380;SDS011;21486;51.916;8.378;2023-12-14T03:12:41;7.75;;;3.88;;
35380;SDS011;21486;51.916;8.378;2023-12-14T03:15:07;5.57;;;4.32;;
35380;SDS011;21486;51.916;8.378;2023-12-14T03:17:33;4.95;;;3.22;;
35380;SDS011;21486;51.916;8.378;2023-12-14T03:19:58;7.38;;;3.58;;
35380;SDS011;21486;51.916;8.378;2023-12-14T03:22:24;6.97;;;4.13;;
35380;SDS011;21486;51.916;8.378;2023-12-14T03:24:49;6.07;;;4.13;;
35380;SDS011;21486;51.916;8.378;2023-12-14T03:27:15;7.47;;;4.63;;
35380;SDS011;21486;51.916;8.378;2023-12-14T03:29:40;7.78;;;4.40;;
35380;SDS011;21486;51.916;8.378;2023-12-14T03:32:06;6.63;;;4.60;;
35380;SDS011;21486;51.916;8.378;2023-12-14T03:34:32;7.60;;;4.03;;
35380;SDS011;21486;51.916;8.378;2023-12-14T03:36:57;11.70;;;4.82;;
35380;SDS011;21486;51.916;8.378;2023-12-14T03:39:23;8.52;;;4.60;;
35380;SDS011;21486;51.916;8.378;2023-12-14T03:41:48;6.63;;;4.35;;
35380;SDS011;21486;51.916;8.378;2023-12-14T03:44:14;8.45;;;4.50;;
35380;SDS011;21486;51.916;8.378;2023-12-14T03:46:40;9.23;;;4.78;;
35380;SDS011;21486;51.916;8.378;2023-12-14T03:49:05;10.25;;;4.60;;
35380;SDS011;21486;51.916;8.378;2023-12-14T03:51:31;8.48;;;4.70;;
35380;SDS011;21486;51.916;8.378;2023-12-14T03:53:56;8.68;;;4.82;;
35380;SDS011;21486;51.916;8.378;2023-12-14T04:40:09;6.70;;;4.00;;
35380;SDS011;21486;51.916;8.378;2023-12-14T04:42:35;8.98;;;5.13;;
35380;SDS011;21486;51.916;8.378;2023-12-14T04:45:01;12.23;;;4.88;;
35380;SDS011;21486;51.916;8.378;2023-12-14T04:47:26;10.77;;;6.18;;
35380;SDS011;21486;51.916;8.378;2023-12-14T04:49:53;9.50;;;5.22;;
35380;SDS011;21486;51.916;8.378;2023-12-14T04:52:19;11.70;;;6.40;;
35380;SDS011;21486;51.916;8.378;2023-12-14T04:54:44;10.70;;;5.68;;
35380;SDS011;21486;51.916;8.378;2023-12-14T04:57:10;7.50;;;5.22;;
35380;SDS011;21486;51.916;8.378;2023-12-14T04:59:35;9.57;;;5.57;;
35380;SDS011;21486;51.916;8.378;2023-12-14T05:02:01;11.95;;;6.03;;
35380;SDS011;21486;51.916;8.378;2023-12-14T05:04:26;11.52;;;6.13;;
35380;SDS011;21486;51.916;8.378;2023-12-14T05:06:52;11.40;;;6.60;;
35380;SDS011;21486;51.916;8.378;2023-12-14T05:09:17;9.68;;;5.70;;
35380;SDS011;21486;51.916;8.378;2023-12-14T05:11:43;11.90;;;6.47;;
35380;SDS011;21486;51.916;8.378;2023-12-14T05:14:08;11.68;;;6.80;;
35380;SDS011;21486;51.916;8.378;2023-12-14T05:16:34;12.02;;;6.72;;
35380;SDS011;21486;51.916;8.378;2023-12-14T05:18:59;12.40;;;7.03;;
35380;SDS011;21486;51.916;8.378;2023-12-14T05:21:25;13.50;;;6.57;;
35380;SDS011;21486;51.916;8.378;2023-12-14T05:23:50;13.82;;;7.93;;
35380;SDS011;21486;51.916;8.378;2023-12-14T05:26:16;22.15;;;9.60;;
35380;SDS011;21486;51.916;8.378;2023-12-14T05:28:41;13.25;;;7.22;;
35380;SDS011;21486;51.916;8.378;2023-12-14T05:31:07;14.40;;;8.13;;
35380;SDS011;21486;51.916;8.378;2023-12-14T05:33:36;15.18;;;7.63;;
35380;SDS011;21486;51.916;8.378;2023-12-14T05:36:02;17.10;;;8.93;;
35380;SDS011;21486;51.916;8.378;2023-12-14T05:38:30;15.65;;;8.35;;
35380;SDS011;21486;51.916;8.378;2023-12-14T05:40:56;15.52;;;8.40;;
35380;SDS011;21486;51.916;8.378;2023-12-14T05:43:21;17.38;;;8.20;;
35380;SDS011;21486;51.916;8.378;2023-12-14T05:45:47;15.10;;;7.45;;
35380;SDS011;21486;51.916;8.378;2023-12-14T05:48:12;14.48;;;7.68;;
35380;SDS011;21486;51.916;8.378;2023-12-14T05:50:38;18.25;;;8.77;;
35380;SDS011;21486;51.916;8.378;2023-12-14T05:53:04;13.18;;;7.13;;
35380;SDS011;21486;51.916;8.378;2023-12-14T05:55:29;19.00;;;8.52;;
35380;SDS011;21486;51.916;8.378;2023-12-14T05:57:55;19.23;;;9.13;;
35380;SDS011;21486;51.916;8.378;2023-12-14T06:00:21;17.48;;;8.65;;
35380;SDS011;21486;51.916;8.378;2023-12-14T06:02:47;19.67;;;9.07;;
35380;SDS011;21486;51.916;8.378;2023-12-14T06:05:12;20.38;;;10.27;;
35380;SDS011;21486;51.916;8.378;2023-12-14T06:07:38;17.75;;;9.43;;
35380;SDS011;21486;51.916;8.378;2023-12-14T06:10:03;20.23;;;10.10;;
35380;SDS011;21486;51.916;8.378;2023-12-14T06:12:29;16.60;;;8.45;;
35380;SDS011;21486;51.916;8.378;2023-12-14T06:14:55;19.30;;;9.50;;
35380;SDS011;21486;51.916;8.378;2023-12-14T06:17:20;16.13;;;9.07;;
35380;SDS011;21486;51.916;8.378;2023-12-14T06:19:46;15.88;;;8.73;;
35380;SDS011;21486;51.916;8.378;2023-12-14T06:22:12;19.45;;;9.45;;
35380;SDS011;21486;51.916;8.378;2023-12-14T06:24:37;16.02;;;8.45;;
35380;SDS011;21486;51.916;8.378;2023-12-14T06:27:03;16.30;;;8.82;;
35380;SDS011;21486;51.916;8.378;2023-12-14T06:29:28;16.52;;;9.40;;
35380;SDS011;21486;51.916;8.378;2023-12-14T06:31:54;17.48;;;8.98;;
35380;SDS011;21486;51.916;8.378;2023-12-14T06:34:19;15.02;;;8.32;;
35380;SDS011;21486;51.916;8.378;2023-12-14T06:36:45;13.52;;;8.18;;
35380;SDS011;21486;51.916;8.378;2023-12-14T06:39:11;17.23;;;8.50;;
35380;SDS011;21486;51.916;8.378;2023-12-14T06:41:37;14.23;;;8.02;;
35380;SDS011;21486;51.916;8.378;2023-12-14T06:44:03;16.50;;;9.00;;
35380;SDS011;21486;51.916;8.378;2023-12-14T06:46:29;13.88;;;7.32;;
35380;SDS011;21486;51.916;8.378;2023-12-14T06:48:54;15.73;;;8.50;;
35380;SDS011;21486;51.916;8.378;2023-12-14T06:51:20;14.63;;;8.60;;
35380;SDS011;21486;51.916;8.378;2023-12-14T06:53:46;14.50;;;8.13;;
35380;SDS011;21486;51.916;8.378;2023-12-14T06:56:12;14.82;;;7.90;;
35380;SDS011;21486;51.916;8.378;2023-12-14T06:58:39;18.80;;;9.23;;
35380;SDS011;21486;51.916;8.378;2023-12-14T07:01:06;21.77;;;9.43;;
35380;SDS011;21486;51.916;8.378;2023-12-14T07:03:31;17.17;;;8.15;;
35380;SDS011;21486;51.916;8.378;2023-12-14T07:05:57;16.77;;;8.07;;
35380;SDS011;21486;51.916;8.378;2023-12-14T07:08:23;18.83;;;7.68;;
35380;SDS011;21486;51.916;8.378;2023-12-14T07:10:49;15.95;;;8.25;;
35380;SDS011;21486;51.916;8.378;2023-12-14T07:13:15;16.50;;;7.43;;
35380;SDS011;21486;51.916;8.378;2023-12-14T07:15:41;13.95;;;7.82;;
35380;SDS011;21486;51.916;8.378;2023-12-14T07:18:06;18.73;;;8.50;;
35380;SDS011;21486;51.916;8.378;2023-12-14T07:20:32;18.45;;;9.00;;
35380;SDS011;21486;51.916;8.378;2023-12-14T07:22:57;14.98;;;6.95;;
35380;SDS011;21486;51.916;8.378;2023-12-14T07:25:23;9.98;;;6.13;;
35380;SDS011;21486;51.916;8.378;2023-12-14T07:27:48;10.40;;;6.05;;
35380;SDS011;21486;51.916;8.378;2023-12-14T07:30:14;16.00;;;7.32;;
35380;SDS011;21486;51.916;8.378;2023-12-14T07:32:39;13.80;;;6.20;;
35380;SDS011;21486;51.916;8.378;2023-12-14T07:35:05;14.82;;;7.43;;
35380;SDS011;21486;51.916;8.378;2023-12-14T07:37:31;12.90;;;6.72;;
35380;SDS011;21486;51.916;8.378;2023-12-14T07:39:57;12.57;;;7.18;;
35380;SDS011;21486;51.916;8.378;2023-12-14T07:42:26;13.88;;;7.13;;
35380;SDS011;21486;51.916;8.378;2023-12-14T07:44:51;11.07;;;6.55;;
35380;SDS011;21486;51.916;8.378;2023-12-14T07:47:17;18.85;;;7.43;;
35380;SDS011;21486;51.916;8.378;2023-12-14T07:49:43;11.93;;;6.97;;
35380;SDS011;21486;51.916;8.378;2023-12-14T07:52:08;14.73;;;7.75;;
35380;SDS011;21486;51.916;8.378;2023-12-14T07:54:34;13.27;;;7.57;;
35380;SDS011;21486;51.916;8.378;2023-12-14T07:57:00;12.43;;;6.80;;
35380;SDS011;21486;51.916;8.378;2023-12-14T07:59:26;12.90;;;8.10;;
35380;SDS011;21486;51.916;8.378;2023-12-14T08:01:52;14.05;;;7.63;;
35380;SDS011;21486;51.916;8.378;2023-12-14T08:04:17;12.80;;;7.57;;
35380;SDS011;21486;51.916;8.378;2023-12-14T08:06:43;12.55;;;7.43;;
35380;SDS011;21486;51.916;8.378;2023-12-14T08:09:11;14.80;;;8.18;;
35380;SDS011;21486;51.916;8.378;2023-12-14T08:11:36;12.60;;;7.15;;
35380;SDS011;21486;51.916;8.378;2023-12-14T08:14:05;16.30;;;8.05;;
35380;SDS011;21486;51.916;8.378;2023-12-14T08:16:31;12.75;;;7.45;;
35380;SDS011;21486;51.916;8.378;2023-12-14T08:18:56;13.38;;;6.63;;
35380;SDS011;21486;51.916;8.378;2023-12-14T08:21:23;15.25;;;7.70;;
35380;SDS011;21486;51.916;8.378;2023-12-14T08:23:49;12.50;;;7.15;;
35380;SDS011;21486;51.916;8.378;2023-12-14T08:26:14;13.73;;;7.50;;
35380;SDS011;21486;51.916;8.378;2023-12-14T08:28:40;17.55;;;8.32;;
35380;SDS011;21486;51.916;8.378;2023-12-14T08:31:06;13.85;;;7.78;;
35380;SDS011;21486;51.916;8.378;2023-12-14T08:33:33;12.68;;;7.82;;
35380;SDS011;21486;51.916;8.378;2023-12-14T08:35:58;15.23;;;8.15;;
35380;SDS011;21486;51.916;8.378;2023-12-14T08:38:24;14.85;;;7.95;;
35380;SDS011;21486;51.916;8.378;2023-12-14T08:40:49;12.88;;;7.75;;
35380;SDS011;21486;51.916;8.378;2023-12-14T08:43:16;11.75;;;7.28;;
35380;SDS011;21486;51.916;8.378;2023-12-14T08:45:41;14.10;;;9.03;;
35380;SDS011;21486;51.916;8.378;2023-12-14T08:48:10;14.40;;;8.68;;
35380;SDS011;21486;51.916;8.378;2023-12-14T08:50:39;14.23;;;9.15;;
35380;SDS011;21486;51.916;8.378;2023-12-14T08:53:04;12.93;;;8.33;;
35380;SDS011;21486;51.916;8.378;2023-12-14T08:55:31;13.77;;;8.38;;
35380;SDS011;21486;51.916;8.378;2023-12-14T08:57:56;12.43;;;7.47;;
35380;SDS011;21486;51.916;8.378;2023-12-14T09:00:22;13.93;;;7.85;;
35380;SDS011;21486;51.916;8.378;2023-12-14T09:02:48;12.73;;;7.50;;
35380;SDS011;21486;51.916;8.378;2023-12-14T09:05:14;12.32;;;7.45;;
35380;SDS011;21486;51.916;8.378;2023-12-14T09:07:41;14.75;;;7.78;;
35380;SDS011;21486;51.916;8.378;2023-12-14T09:10:08;11.45;;;6.50;;
35380;SDS011;21486;51.916;8.378;2023-12-14T09:12:34;12.75;;;7.05;;
35380;SDS011;21486;51.916;8.378;2023-12-14T09:15:00;12.50;;;7.35;;
35380;SDS011;21486;51.916;8.378;2023-12-14T09:17:26;15.88;;;8.35;;
35380;SDS011;21486;51.916;8.378;2023-12-14T09:19:57;12.30;;;7.28;;
35380;SDS011;21486;51.916;8.378;2023-12-14T09:22:26;14.93;;;8.10;;
35380;SDS011;21486;51.916;8.378;2023-12-14T09:24:52;10.85;;;6.95;;
35380;SDS011;21486;51.916;8.378;2023-12-14T09:27:17;11.98;;;7.45;;
35380;SDS011;21486;51.916;8.378;2023-12-14T09:29:43;12.13;;;6.55;;
35380;SDS011;21486;51.916;8.378;2023-12-14T09:32:09;13.23;;;6.95;;
35380;SDS011;21486;51.916;8.378;2023-12-14T09:34:35;10.90;;;6.38;;
35380;SDS011;21486;51.916;8.378;2023-12-14T09:37:01;12.35;;;6.47;;
35380;SDS011;21486;51.916;8.378;2023-12-14T09:39:26;11.25;;;6.90;;
35380;SDS011;21486;51.916;8.378;2023-12-14T09:41:53;12.27;;;6.70;;
35380;SDS011;21486;51.916;8.378;2023-12-14T09:44:30;10.75;;;6.18;;
35380;SDS011;21486;51.916;8.378;2023-12-14T09:46:57;9.73;;;6.10;;
35380;SDS011;21486;51.916;8.378;2023-12-14T09:49:25;10.20;;;5.95;;
35380;SDS011;21486;51.916;8.378;2023-12-14T09:51:54;10.82;;;6.43;;
35380;SDS011;21486;51.916;8.378;2023-12-14T09:54:20;8.43;;;5.85;;
35380;SDS011;21486;51.916;8.378;2023-12-14T09:56:46;12.23;;;7.93;;
35380;SDS011;21486;51.916;8.378;2023-12-14T09:59:12;12.48;;;7.47;;
35380;SDS011;21486;51.916;8.378;2023-12-14T10:01:38;11.30;;;7.38;;
35380;SDS011;21486;51.916;8.378;2023-12-14T10:04:07;9.95;;;6.28;;
35380;SDS011;21486;51.916;8.378;2023-12-14T10:06:40;10.88;;;6.28;;
35380;SDS011;21486;51.916;8.378;2023-12-14T10:09:07;12.93;;;6.20;;
35380;SDS011;21486;51.916;8.378;2023-12-14T10:11:37;9.85;;;5.97;;
35380;SDS011;21486;51.916;8.378;2023-12-14T10:14:17;9.50;;;6.47;;
35380;SDS011;21486;51.916;8.378;2023-12-14T10:16:44;11.63;;;6.53;;
35380;SDS011;21486;51.916;8.378;2023-12-14T10:19:10;10.40;;;5.70;;
35380;SDS011;21486;51.916;8.378;2023-12-14T10:21:36;10.80;;;6.30;;
35380;SDS011;21486;51.916;8.378;2023-12-14T10:24:01;8.07;;;5.60;;
35380;SDS011;21486;51.916;8.378;2023-12-14T10:26:27;9.55;;;5.68;;
35380;SDS011;21486;51.916;8.378;2023-12-14T10:28:53;10.07;;;6.13;;
35380;SDS011;21486;51.916;8.378;2023-12-14T10:31:18;12.52;;;5.40;;
35380;SDS011;21486;51.916;8.378;2023-12-14T10:33:47;9.02;;;5.65;;
35380;SDS011;21486;51.916;8.378;2023-12-14T10:36:13;12.15;;;5.80;;
35380;SDS011;21486;51.916;8.378;2023-12-14T10:38:42;9.95;;;5.70;;
35380;SDS011;21486;51.916;8.378;2023-12-14T10:41:10;12.20;;;6.65;;
35380;SDS011;21486;51.916;8.378;2023-12-14T10:43:38;8.63;;;5.97;;
35380;SDS011;21486;51.916;8.378;2023-12-14T10:46:05;12.73;;;6.78;;
35380;SDS011;21486;51.916;8.378;2023-12-14T10:48:34;11.10;;;5.85;;
35380;SDS011;21486;51.916;8.378;2023-12-14T10:51:01;12.55;;;5.85;;
35380;SDS011;21486;51.916;8.378;2023-12-14T10:53:28;11.68;;;6.55;;
35380;SDS011;21486;51.916;8.378;2023-12-14T10:55:54;10.02;;;6.05;;
35380;SDS011;21486;51.916;8.378;2023-12-14T10:58:23;10.40;;;5.60;;
35380;SDS011;21486;51.916;8.378;2023-12-14T11:05:50;10.48;;;5.68;;
35380;SDS011;21486;51.916;8.378;2023-12-14T11:08:16;10.18;;;5.88;;
35380;SDS011;21486;51.916;8.378;2023-12-14T11:10:43;9.18;;;5.68;;
35380;SDS011;21486;51.916;8.378;2023-12-14T11:13:20;8.25;;;5.47;;
35380;SDS011;21486;51.916;8.378;2023-12-14T11:15:50;9.23;;;6.07;;
35380;SDS011;21486;51.916;8.378;2023-12-14T11:23:11;9.40;;;6.43;;
35380;SDS011;21486;51.916;8.378;2023-12-14T11:25:50;10.23;;;6.13;;
35380;SDS011;21486;51.916;8.378;2023-12-14T11:28:17;11.60;;;6.22;;
35380;SDS011;21486;51.916;8.378;2023-12-14T11:30:44;10.40;;;6.43;;
35380;SDS011;21486;51.916;8.378;2023-12-14T11:33:13;9.25;;;5.88;;
35380;SDS011;21486;51.916;8.378;2023-12-14T11:35:40;9.85;;;6.18;;
35380;SDS011;21486;51.916;8.378;2023-12-14T11:38:06;10.55;;;6.05;;
35380;SDS011;21486;51.916;8.378;2023-12-14T11:40:37;8.82;;;5.93;;
35380;SDS011;21486;51.916;8.378;2023-12-14T11:43:07;9.80;;;6.13;;
35380;SDS011;21486;51.916;8.378;2023-12-14T11:45:37;9.90;;;5.85;;
35380;SDS011;21486;51.916;8.378;2023-12-14T11:48:03;12.10;;;6.10;;
35380;SDS011;21486;51.916;8.378;2023-12-14T11:50:31;11.27;;;6.32;;
35380;SDS011;21486;51.916;8.378;2023-12-14T12:19:44;9.13;;;5.60;;
35380;SDS011;21486;51.916;8.378;2023-12-14T12:22:10;8.75;;;5.47;;
35380;SDS011;21486;51.916;8.378;2023-12-14T12:24:36;7.95;;;5.53;;
35380;SDS011;21486;51.916;8.378;2023-12-14T12:39:11;8.73;;;5.38;;
35380;SDS011;21486;51.916;8.378;2023-12-14T12:41:37;8.20;;;6.07;;
35380;SDS011;21486;51.916;8.378;2023-12-14T12:44:03;9.75;;;6.07;;
35380;SDS011;21486;51.916;8.378;2023-12-14T14:47:59;19.17;;;9.50;;
35380;SDS011;21486;51.916;8.378;2023-12-14T14:50:25;26.15;;;10.48;;
35380;SDS011;21486;51.916;8.378;2023-12-14T14:52:51;22.65;;;9.63;;
35380;SDS011;21486;51.916;8.378;2023-12-14T14:55:17;24.25;;;10.82;;
35380;SDS011;21486;51.916;8.378;2023-12-14T14:57:42;16.42;;;9.50;;
35380;SDS011;21486;51.916;8.378;2023-12-14T15:00:08;17.25;;;9.77;;
35380;SDS011;21486;51.916;8.378;2023-12-14T15:02:34;21.23;;;10.75;;
35380;SDS011;21486;51.916;8.378;2023-12-14T15:05:00;20.27;;;10.07;;
35380;SDS011;21486;51.916;8.378;2023-12-14T15:07:25;21.63;;;10.57;;
35380;SDS011;21486;51.916;8.378;2023-12-14T15:09:51;22.40;;;11.60;;
35380;SDS011;21486;51.916;8.378;2023-12-14T15:12:17;24.88;;;11.80;;
35380;SDS011;21486;51.916;8.378;2023-12-14T15:14:42;20.13;;;10.77;;
35380;SDS011;21486;51.916;8.378;2023-12-14T15:17:08;19.85;;;11.55;;
35380;SDS011;21486;51.916;8.378;2023-12-14T15:19:34;25.38;;;12.18;;
35380;SDS011;21486;51.916;8.378;2023-12-14T15:22:00;20.38;;;11.05;;
35380;SDS011;21486;51.916;8.378;2023-12-14T15:24:26;22.83;;;11.23;;
35380;SDS011;21486;51.916;8.378;2023-12-14T15:26:52;20.48;;;10.32;;
35380;SDS011;21486;51.916;8.378;2023-12-14T15:29:17;20.25;;;10.32;;
35380;SDS011;21486;51.916;8.378;2023-12-14T15:31:43;19.92;;;11.02;;
35380;SDS011;21486;51.916;8.378;2023-12-14T15:34:08;27.48;;;10.75;;
35380;SDS011;21486;51.916;8.378;2023-12-14T15:36:34;24.85;;;12.07;;
35380;SDS011;21486;51.916;8.378;2023-12-14T15:39:00;23.27;;;11.73;;
35380;SDS011;21486;51.916;8.378;2023-12-14T15:41:26;22.90;;;10.95;;
35380;SDS011;21486;51.916;8.378;2023-12-14T15:43:52;20.60;;;10.48;;
35380;SDS011;21486;51.916;8.378;2023-12-14T15:46:17;27.25;;;11.38;;
35380;SDS011;21486;51.916;8.378;2023-12-14T15:48:43;23.08;;;11.20;;
35380;SDS011;21486;51.916;8.378;2023-12-14T15:51:09;23.90;;;11.15;;
35380;SDS011;21486;51.916;8.378;2023-12-14T15:53:35;22.75;;;11.80;;
35380;SDS011;21486;51.916;8.378;2023-12-14T15:56:01;20.15;;;11.13;;
35380;SDS011;21486;51.916;8.378;2023-12-14T15:58:27;25.27;;;12.50;;
35380;SDS011;21486;51.916;8.378;2023-12-14T16:00:52;30.92;;;12.30;;
35380;SDS011;21486;51.916;8.378;2023-12-14T16:03:18;24.88;;;11.32;;
35380;SDS011;21486;51.916;8.378;2023-12-14T16:05:43;23.92;;;12.38;;
35380;SDS011;21486;51.916;8.378;2023-12-14T16:08:09;27.13;;;12.27;;
35380;SDS011;21486;51.916;8.378;2023-12-14T16:10:36;24.60;;;12.85;;
35380;SDS011;21486;51.916;8.378;2023-12-14T16:13:02;26.23;;;12.68;;
35380;SDS011;21486;51.916;8.378;2023-12-14T16:15:27;22.13;;;11.18;;
35380;SDS011;21486;51.916;8.378;2023-12-14T16:17:53;25.63;;;13.55;;
35380;SDS011;21486;51.916;8.378;2023-12-14T16:20:18;23.85;;;12.23;;
35380;SDS011;21486;51.916;8.378;2023-12-14T16:22:49;24.63;;;12.38;;
35380;SDS011;21486;51.916;8.378;2023-12-14T16:25:15;28.77;;;11.70;;
35380;SDS011;21486;51.916;8.378;2023-12-14T16:27:41;25.65;;;12.45;;
35380;SDS011;21486;51.916;8.378;2023-12-14T16:30:07;26.20;;;11.70;;
35380;SDS011;21486;51.916;8.378;2023-12-14T16:32:34;24.73;;;12.57;;
35380;SDS011;21486;51.916;8.378;2023-12-14T16:35:00;24.52;;;12.57;;
35380;SDS011;21486;51.916;8.378;2023-12-14T16:37:26;25.50;;;13.63;;
35380;SDS011;21486;51.916;8.378;2023-12-14T16:39:53;30.40;;;13.52;;
35380;SDS011;21486;51.916;8.378;2023-12-14T16:42:19;27.13;;;13.57;;
35380;SDS011;21486;51.916;8.378;2023-12-14T16:44:44;25.48;;;12.57;;
35380;SDS011;21486;51.916;8.378;2023-12-14T16:47:10;42.08;;;17.33;;
35380;SDS011;21486;51.916;8.378;2023-12-14T16:49:37;40.17;;;16.95;;
35380;SDS011;21486;51.916;8.378;2023-12-14T16:52:03;37.00;;;18.63;;
35380;SDS011;21486;51.916;8.378;2023-12-14T16:54:29;33.42;;;17.85;;
35380;SDS011;21486;51.916;8.378;2023-12-14T16:56:55;35.23;;;17.77;;
35380;SDS011;21486;51.916;8.378;2023-12-14T16:59:20;33.73;;;18.03;;
35380;SDS011;21486;51.916;8.378;2023-12-14T17:01:47;31.88;;;17.35;;
35380;SDS011;21486;51.916;8.378;2023-12-14T17:04:13;29.87;;;17.47;;
35380;SDS011;21486;51.916;8.378;2023-12-14T17:06:38;29.00;;;16.60;;
35380;SDS011;21486;51.916;8.378;2023-12-14T17:09:05;31.45;;;16.90;;
35380;SDS011;21486;51.916;8.378;2023-12-14T17:11:31;30.88;;;17.00;;
35380;SDS011;21486;51.916;8.378;2023-12-14T17:13:57;29.17;;;16.55;;
35380;SDS011;21486;51.916;8.378;2023-12-14T17:16:23;30.57;;;16.97;;
35380;SDS011;21486;51.916;8.378;2023-12-14T17:18:49;29.63;;;16.87;;
35380;SDS011;21486;51.916;8.378;2023-12-14T17:21:18;31.20;;;17.07;;
35380;SDS011;21486;51.916;8.378;2023-12-14T17:23:45;31.80;;;17.70;;
35380;SDS011;21486;51.916;8.378;2023-12-14T17:26:11;31.70;;;17.00;;
35380;SDS011;21486;51.916;8.378;2023-12-14T17:28:49;31.38;;;17.58;;
35380;SDS011;21486;51.916;8.378;2023-12-14T17:31:17;26.85;;;14.07;;
35380;SDS011;21486;51.916;8.378;2023-12-14T17:33:43;32.63;;;15.55;;
35380;SDS011;21486;51.916;8.378;2023-12-14T17:36:09;30.60;;;14.27;;
35380;SDS011;21486;51.916;8.378;2023-12-14T17:38:35;31.48;;;15.40;;
35380;SDS011;21486;51.916;8.378;2023-12-14T17:41:00;30.40;;;14.68;;
35380;SDS011;21486;51.916;8.378;2023-12-14T17:43:34;34.35;;;14.98;;
35380;SDS011;21486;51.916;8.378;2023-12-14T17:46:04;33.13;;;15.02;;
35380;SDS011;21486;51.916;8.378;2023-12-14T17:48:30;33.40;;;15.70;;
35380;SDS011;21486;51.916;8.378;2023-12-14T17:50:55;38.70;;;15.95;;
35380;SDS011;21486;51.916;8.378;2023-12-14T17:53:22;31.55;;;15.15;;
35380;SDS011;21486;51.916;8.378;2023-12-14T17:55:48;43.55;;;15.98;;
35380;SDS011;21486;51.916;8.378;2023-12-14T17:58:14;33.72;;;15.82;;
35380;SDS011;21486;51.916;8.378;2023-12-14T18:00:39;32.38;;;14.50;;
35380;SDS011;21486;51.916;8.378;2023-12-14T18:03:05;28.60;;;13.98;;
35380;SDS011;21486;51.916;8.378;2023-12-14T18:05:31;33.55;;;16.17;;
35380;SDS011;21486;51.916;8.378;2023-12-14T18:07:57;34.25;;;15.93;;
35380;SDS011;21486;51.916;8.378;2023-12-14T18:10:23;32.95;;;15.35;;
35380;SDS011;21486;51.916;8.378;2023-12-14T18:12:49;37.83;;;16.77;;
35380;SDS011;21486;51.916;8.378;2023-12-14T18:15:16;33.33;;;15.27;;
35380;SDS011;21486;51.916;8.378;2023-12-14T18:17:42;41.75;;;16.95;;
35380;SDS011;21486;51.916;8.378;2023-12-14T18:20:07;35.30;;;15.23;;
35380;SDS011;21486;51.916;8.378;2023-12-14T18:22:33;37.97;;;16.02;;
35380;SDS011;21486;51.916;8.378;2023-12-14T18:24:59;38.97;;;15.98;;
35380;SDS011;21486;51.916;8.378;2023-12-14T18:27:25;31.83;;;14.60;;
35380;SDS011;21486;51.916;8.378;2023-12-14T18:29:51;37.30;;;17.08;;
35380;SDS011;21486;51.916;8.378;2023-12-14T18:32:17;40.63;;;17.08;;
35380;SDS011;21486;51.916;8.378;2023-12-14T18:34:42;39.63;;;16.75;;
35380;SDS011;21486;51.916;8.378;2023-12-14T18:37:08;42.22;;;16.92;;
35380;SDS011;21486;51.916;8.378;2023-12-14T18:39:42;35.85;;;17.17;;
35380;SDS011;21486;51.916;8.378;2023-12-14T18:42:08;34.83;;;16.33;;
35380;SDS011;21486;51.916;8.378;2023-12-14T18:44:36;45.47;;;18.92;;